Shaw Air Force Base
KSSC : rendu visible

Aérodrome :











RETROUVEZ-NOUS SUR...

 
LOGIN :

S'inscrire | Disclaimer

   EN    FR    IT 

 









Légende :    VFR   VFR Marginal   IFR   IFR Intensif   IFR Très Intensif
Visi : 
Plafond : 
>= 8 km
>= 3000ft
5 à 8 km
1000 à 3000 ft
1500m à 5 km
500 à 1000 ft
800 à 1500m
200 à 500 ft
< 800m
< 200 ft
Symboles :   Orages  Brouillard  Fortes neiges  Fortes précipitations  Vent > 20 kt






- Altitude de l'aérodrome : 241 ft


KSSC - Shaw Air Force Base

DERNIER METAR :
  • 171856Z AUTO 04014KT 10SM CLR 11/M09 A3059 RMK AO2 SLP361 T01051087 $

METARs EXPIRÉS :
  • 171756Z 03009KT 10SM FEW200 10/M09 A3062 RMK AO2A SLP371 T00991092 10101 20043 58011 $
  • 171656Z 06014KT 10SM FEW200 10/M10 A3064 RMK AO2A SLP378 T00951096 $

TAF TAF KSSC
Valide du 17 à 16h jusqu'au 18 à 22h UTC


171610Z 1716/1822 05012G20KT 9999 SCT200 QNH3063INS
BECMG 1721/1722 05009KT 9999 BKN200 QNH3060INS
BECMG 1803/1804 07007KT 9999 BKN120 OVC200 QNH3055INS
BECMG 1814/1815 14008KT 9999 BKN035 OVC100 QNH3045INS TX11/1720Z TN01/1810Z LAST NO AMDS AFT 1720Z NEXT 1816Z



MET'MAP, la Météo Aéronautique d'un coup d'oeil ! - Copyright ORBIFLY Décembre 2007 - Disclaimer

ORBIFLY MET'MAP TEAM :

Programmation & Développement : Alexandra Zaïnal
Sur une idée originale de : Baudouin d'Aumeries
Assistance à la programmation : Marc-Olivier Méhu
Soutien technique & logistique : Manuel Goepfert

Contact : metmap@orbifly.com




SOURCES & CREDITS :

   NOAA       Earth
Advisory